Fort Defiance, Virginia
Current Conditions -  °F | °C
As of 6:35 PM on Monday 20 Oct 2014 (Local Time) from KSHD Reporting Station
Broken Clouds Broken Clouds  
Wind Chill: 62°   Ceiling: 10000
Heat Index: 62°   Visibility: 10mi
Dew Point: 43°   Wind: 6mph
Humidity: 50%   Direction: 210°SSW
Pressure: 29.95"   Gusts: NA
Location:  38.24°N, 78.97°W
Report Text: KSHD 202235Z AUTO 21005KT 10SM BKN100 17/06 A2995 RMK AO2 T01670062
Loading
Personal Weather Stations






























Interactive Weather Map
Tropical Storm Tracking
New forecast layout! Learn more

10-Day Weather Forecast

Advertisements
Track Severe Weather on mobile